Time;durP1;ratioP1;P1;durP2;ratioP2;P2;SDS_P1;SDS_P2;PMS_P1;PMS_P2;Temp;Humidity;BMP_temperature;BMP_pressure;BME280_temperature;BME280_humidity;BME280_pressure;Samples;Min_cycle;Max_cycle;Signal;HPM_P1;HPM_P2
2021/09/04 00:02:01;;;;;;;;;20.50;18.50;;;;;20.90;60.17;100772.28;5099556;27;45534;-60
2021/09/04 00:04:26;;;;;;;;;18.50;17.25;;;;;20.89;60.17;100764.47;5099231;27;45934;-60
2021/09/04 00:06:52;;;;;;;;;23.50;20.25;;;;;20.87;60.15;100767.34;5098970;27;46548;-60
2021/09/04 00:09:17;;;;;;;;;19.75;18.25;;;;;20.86;60.25;100765.69;5099436;27;45307;-60
2021/09/04 00:11:43;;;;;;;;;20.00;16.50;;;;;20.87;60.68;100763.84;5098866;27;45668;-60
2021/09/04 00:14:08;;;;;;;;;20.25;16.75;;;;;20.85;60.66;100761.38;5098270;27;68169;-60
2021/09/04 00:16:33;;;;;;;;;18.75;15.75;;;;;20.84;60.35;100758.91;5098217;27;64998;-60
2021/09/04 00:18:59;;;;;;;;;21.25;18.25;;;;;20.81;60.48;100757.44;5098365;27;63287;-59
2021/09/04 00:21:24;;;;;;;;;19.75;19.50;;;;;20.78;60.38;100752.50;5098126;27;58100;-60
2021/09/04 00:23:49;;;;;;;;;21.00;20.50;;;;;20.75;61.00;100758.19;5098013;27;68244;-59
2021/09/04 00:26:15;;;;;;;;;22.50;18.00;;;;;20.74;61.00;100745.88;5079617;27;68595;-60
2021/09/04 00:28:42;;;;;;;;;21.00;19.25;;;;;20.75;60.97;100752.84;5098562;27;54925;-59
2021/09/04 00:31:08;;;;;;;;;23.50;19.75;;;;;20.74;60.91;100748.53;5098810;27;45337;-59
2021/09/04 00:33:33;;;;;;;;;18.75;18.25;;;;;20.73;61.08;100755.75;5098628;27;45347;-60
2021/09/04 00:35:58;;;;;;;;;24.75;24.00;;;;;20.72;60.87;100751.41;5098946;27;45370;-59
2021/09/04 00:38:24;;;;;;;;;23.25;22.25;;;;;20.74;60.46;100748.53;5098057;27;61944;-60
2021/09/04 00:40:49;;;;;;;;;25.75;22.50;;;;;20.74;60.68;100752.06;5097997;27;66440;-59
2021/09/04 00:43:14;;;;;;;;;22.25;20.50;;;;;20.72;60.57;100746.09;5098751;27;45357;-59
2021/09/04 00:45:40;;;;;;;;;26.25;24.75;;;;;20.73;60.48;100749.56;5098654;27;45244;-60
2021/09/04 00:48:06;;;;;;;;;30.25;22.75;;;;;20.69;60.95;100749.16;5097732;27;63088;-60
2021/09/04 00:50:32;;;;;;;;;24.75;24.25;;;;;20.66;61.19;100748.72;5098766;27;45395;-60
2021/09/04 00:52:59;;;;;;;;;28.00;23.00;;;;;20.63;61.09;100749.13;5097790;27;45239;-60
2021/09/04 00:55:24;;;;;;;;;27.25;24.25;;;;;20.59;61.50;100744.19;5079941;27;47295;-59
2021/09/04 00:57:50;;;;;;;;;26.75;23.25;;;;;20.57;61.52;100750.72;5098001;27;56454;-59
2021/09/04 01:00:15;;;;;;;;;35.00;30.25;;;;;20.55;61.47;100744.75;5097585;27;64385;-60
2021/09/04 01:02:41;;;;;;;;;37.50;33.00;;;;;20.53;61.63;100752.13;5097202;27;73623;-60
2021/09/04 01:05:07;;;;;;;;;46.25;36.25;;;;;20.51;61.35;100748.84;5098446;27;45318;-60
2021/09/04 01:07:33;;;;;;;;;47.25;38.75;;;;;20.49;61.76;100740.19;5098186;27;45346;-60
2021/09/04 01:09:58;;;;;;;;;56.25;43.50;;;;;20.48;61.30;100742.06;5098367;27;45444;-60
2021/09/04 01:12:24;;;;;;;;;58.50;46.25;;;;;20.47;61.37;100740.41;5078743;27;73855;-60
2021/09/04 01:14:49;;;;;;;;;65.50;50.50;;;;;20.45;61.51;100732.59;5097702;27;45447;-60
2021/09/04 01:17:15;;;;;;;;;67.25;50.75;;;;;20.47;61.64;100740.41;5097751;27;56153;-60
2021/09/04 01:19:40;;;;;;;;;70.50;52.50;;;;;20.46;61.95;100736.91;5097328;27;65409;-61
2021/09/04 01:22:05;;;;;;;;;67.50;52.00;;;;;20.45;61.76;100732.59;5096765;27;72241;-59
2021/09/04 01:24:31;;;;;;;;;63.75;48.50;;;;;20.44;62.01;100732.78;5097520;27;55901;-60
2021/09/04 01:26:56;;;;;;;;;65.75;49.50;;;;;20.44;61.45;100736.28;5098047;27;45383;-59
2021/09/04 01:29:23;;;;;;;;;66.00;50.50;;;;;20.44;61.57;100730.94;5078790;27;66960;-59
2021/09/04 01:31:48;;;;;;;;;73.00;53.25;;;;;20.46;62.02;100733.44;5097788;27;47394;-60
2021/09/04 01:34:13;;;;;;;;;68.75;51.50;;;;;20.46;61.93;100728.09;5096895;27;68751;-60
2021/09/04 01:36:39;;;;;;;;;66.75;51.50;;;;;20.48;61.66;100725.22;5097756;27;45342;-60
2021/09/04 01:39:06;;;;;;;;;66.75;49.75;;;;;20.47;61.64;100727.06;5096816;27;68979;-60
2021/09/04 01:41:31;;;;;;;;;62.75;47.50;;;;;20.48;61.59;100725.22;5097621;27;45283;-61
2021/09/04 01:43:57;;;;;;;;;59.00;45.50;;;;;20.49;61.78;100727.69;5097671;27;45242;-58
2021/09/04 01:46:22;;;;;;;;;60.50;46.25;;;;;20.50;61.40;100728.50;5097796;27;45586;-60
2021/09/04 01:48:47;;;;;;;;;53.75;42.00;;;;;20.48;61.37;100723.38;5097334;27;45220;-60
2021/09/04 01:51:13;;;;;;;;;56.75;43.25;;;;;20.49;61.62;100726.84;5096655;27;66621;-59
2021/09/04 01:53:39;;;;;;;;;50.50;38.75;;;;;20.49;61.14;100726.84;5097493;27;45236;-59
2021/09/04 01:56:04;;;;;;;;;53.00;40.00;;;;;20.46;61.55;100722.75;5097586;27;45185;-59
2021/09/04 01:58:30;;;;;;;;;47.00;39.25;;;;;20.44;61.69;100727.47;5079254;27;45243;-59
2021/09/04 02:00:55;;;;;;;;;48.25;37.75;;;;;20.42;61.70;100718.81;5095765;27;67931;-60
2021/09/04 02:03:20;;;;;;;;;53.75;41.25;;;;;20.38;61.52;100721.06;5096139;27;45370;-59
2021/09/04 02:05:46;;;;;;;;;51.25;40.00;;;;;20.36;61.94;100719.59;5097256;27;45323;-59
2021/09/04 02:08:11;;;;;;;;;54.00;41.50;;;;;20.34;62.11;100718.97;5096925;27;57203;-60
2021/09/04 02:10:37;;;;;;;;;50.75;38.00;;;;;20.33;61.84;100722.66;5096268;27;73243;-59
2021/09/04 02:13:02;;;;;;;;;46.00;39.00;;;;;20.34;62.09;100724.31;5097237;27;45437;-60
2021/09/04 02:15:27;;;;;;;;;48.50;37.25;;;;;20.34;62.13;100726.97;5097398;27;45370;-60
2021/09/04 02:17:53;;;;;;;;;47.00;38.75;;;;;20.35;61.92;100726.81;5096117;27;69132;-60
2021/09/04 02:20:18;;;;;;;;;49.25;38.50;;;;;20.35;62.25;100731.31;5096317;27;65044;-59
2021/09/04 02:22:44;;;;;;;;;46.00;38.75;;;;;20.33;62.25;100728.84;5095866;27;70155;-60
2021/09/04 02:25:09;;;;;;;;;49.25;38.75;;;;;20.31;61.89;100729.03;5096222;27;64627;-59
2021/09/04 02:27:35;;;;;;;;;47.75;36.00;;;;;20.33;61.96;100728.00;5097029;27;45658;-60
2021/09/04 02:30:03;;;;;;;;;47.50;39.50;;;;;20.34;62.13;100732.31;5096837;27;45970;-60
2021/09/04 02:32:28;;;;;;;;;43.00;36.25;;;;;20.36;62.12;100732.94;5095759;27;45398;-60
2021/09/04 02:34:53;;;;;;;;;50.50;36.25;;;;;20.36;62.42;100733.78;5077907;27;66787;-60
2021/09/04 02:37:19;;;;;;;;;45.50;35.75;;;;;20.36;62.47;100732.94;5096810;27;45216;-60
2021/09/04 02:39:45;;;;;;;;;48.75;37.25;;;;;20.34;62.48;100727.81;5096695;27;48167;-60
2021/09/04 02:42:10;;;;;;;;;47.00;36.00;;;;;20.35;62.14;100731.31;5096923;27;45309;-60
2021/09/04 02:44:36;;;;;;;;;49.00;39.00;;;;;20.35;62.34;100729.47;5097029;27;45167;-60
2021/09/04 02:47:01;;;;;;;;;47.50;36.25;;;;;20.33;62.06;100731.50;5078750;27;45652;-60
2021/09/04 02:49:27;;;;;;;;;42.75;36.25;;;;;20.34;62.24;100730.50;5096595;27;45976;-60
2021/09/04 02:51:52;;;;;;;;;45.00;36.25;;;;;20.35;62.03;100725.97;5096889;27;45307;-58
2021/09/04 02:54:17;;;;;;;;;40.00;34.75;;;;;20.34;62.29;100727.81;5095731;27;67796;-60
2021/09/04 02:56:43;;;;;;;;;39.25;34.75;;;;;20.32;62.56;100724.53;5095600;27;66513;-60
2021/09/04 02:59:08;;;;;;;;;42.25;33.25;;;;;20.29;62.60;100727.59;5095731;27;65967;-60
2021/09/04 03:01:33;;;;;;;;;44.75;34.50;;;;;20.24;62.41;100725.47;5095747;27;68194;-59
2021/09/04 03:03:59;;;;;;;;;36.75;33.50;;;;;20.21;62.63;100730.41;5095912;27;63022;-59
2021/09/04 03:06:24;;;;;;;;;42.75;32.25;;;;;20.19;62.70;100737.78;5095808;27;67134;-59
2021/09/04 03:08:51;;;;;;;;;41.25;34.75;;;;;20.16;63.19;100733.63;5096242;27;53795;-60
2021/09/04 03:11:16;;;;;;;;;39.75;34.25;;;;;20.16;62.78;100726.47;5096521;27;45461;-59
2021/09/04 03:13:41;;;;;;;;;40.75;31.50;;;;;20.15;63.46;100729.31;5095803;27;65886;-59
2021/09/04 03:16:07;;;;;;;;;46.00;36.75;;;;;20.14;63.44;100730.34;5099318;27;45450;-60
2021/09/04 03:18:32;;;;;;;;;40.50;33.50;;;;;20.14;63.47;100733.84;5099899;27;46331;-60
2021/09/04 03:20:58;;;;;;;;;48.25;36.25;;;;;20.12;63.59;100727.88;5099814;27;45184;-60
2021/09/04 03:23:23;;;;;;;;;44.00;35.25;;;;;20.14;62.89;100727.66;5099171;27;66276;-60
2021/09/04 03:25:48;;;;;;;;;39.50;31.75;;;;;20.14;63.15;100719.66;5099750;27;48552;-59
2021/09/04 03:28:14;;;;;;;;;42.75;34.50;;;;;20.13;63.15;100721.53;5098810;27;68220;-61
2021/09/04 03:30:39;;;;;;;;;49.50;36.25;;;;;20.16;63.11;100722.97;5099097;27;60554;-60
2021/09/04 03:33:04;;;;;;;;;44.00;34.75;;;;;20.14;63.48;100719.66;5099888;27;45366;-59
2021/09/04 03:35:30;;;;;;;;;42.75;34.75;;;;;20.10;63.24;100718.44;5099825;27;45608;-59
2021/09/04 03:37:55;;;;;;;;;45.75;36.75;;;;;20.08;63.39;100715.94;5099452;27;45895;-59
2021/09/04 03:40:21;;;;;;;;;46.75;39.50;;;;;20.08;63.16;100721.28;5098664;27;68786;-60
2021/09/04 03:42:46;;;;;;;;;41.50;36.00;;;;;20.07;63.10;100716.16;5081210;27;49459;-60
2021/09/04 03:45:11;;;;;;;;;51.25;39.50;;;;;20.05;62.99;100731.53;5098927;27;64112;-60
2021/09/04 03:47:37;;;;;;;;;53.25;36.00;;;;;20.00;63.17;100724.09;5099790;27;46486;-60
2021/09/04 03:50:03;;;;;;;;;49.25;37.00;;;;;19.96;63.20;100731.66;5081141;27;59027;-60
2021/09/04 03:52:28;;;;;;;;;48.50;39.00;;;;;19.92;63.42;100727.75;5064850;27;45348;-60
2021/09/04 03:54:53;;;;;;;;;47.50;36.75;;;;;19.91;63.75;100731.41;5099029;27;59661;-59
2021/09/04 03:57:19;;;;;;;;;46.25;35.75;;;;;19.89;63.94;100733.44;5099111;27;45363;-60
2021/09/04 03:59:44;;;;;;;;;48.50;36.75;;;;;19.88;63.82;100721.09;5098602;27;60095;-59
2021/09/04 04:02:10;;;;;;;;;50.25;39.50;;;;;19.89;63.65;100728.13;5098558;27;64382;-60
2021/09/04 04:04:35;;;;;;;;;48.75;36.75;;;;;19.89;63.73;100722.78;5099405;27;45301;-59
2021/09/04 04:07:00;;;;;;;;;46.25;36.25;;;;;19.89;63.71;100721.94;5099379;27;45492;-60
2021/09/04 04:09:26;;;;;;;;;46.75;38.75;;;;;19.87;63.64;100714.94;5098394;27;65934;-60
2021/09/04 04:11:51;;;;;;;;;47.00;38.75;;;;;19.84;63.63;100715.34;5098801;27;51570;-60
2021/09/04 04:14:16;;;;;;;;;49.50;39.25;;;;;19.83;63.61;100710.19;5099014;27;50471;-60
2021/09/04 04:16:42;;;;;;;;;47.00;36.50;;;;;19.82;63.72;100711.22;5079815;27;69851;-59
2021/09/04 04:19:07;;;;;;;;;53.00;39.75;;;;;19.80;64.54;100702.59;5097906;27;72116;-60
2021/09/04 04:21:33;;;;;;;;;49.75;39.75;;;;;19.80;64.12;100700.75;5098287;27;54703;-59
2021/09/04 04:23:58;;;;;;;;;50.00;39.25;;;;;19.80;63.94;100715.91;5099081;27;45293;-59
2021/09/04 04:26:24;;;;;;;;;48.75;39.50;;;;;19.77;63.98;100710.97;5097222;27;62206;-60
2021/09/04 04:28:50;;;;;;;;;48.50;37.25;;;;;19.76;64.00;100709.31;5098953;27;45721;-60
2021/09/04 04:31:16;;;;;;;;;48.75;39.50;;;;;19.75;64.18;100705.84;5098899;27;45352;-59
2021/09/04 04:33:41;;;;;;;;;56.25;41.75;;;;;19.73;64.64;100706.00;5098008;27;67550;-60
2021/09/04 04:36:06;;;;;;;;;49.75;39.75;;;;;19.73;64.20;100711.34;5097793;27;72521;-59
2021/09/04 04:38:32;;;;;;;;;50.75;38.00;;;;;19.73;64.37;100719.34;5098070;27;45305;-59
2021/09/04 04:40:57;;;;;;;;;44.75;37.50;;;;;19.72;64.11;100704.38;5098223;27;60699;-60
2021/09/04 04:43:23;;;;;;;;;45.75;37.25;;;;;19.72;64.18;100708.88;5098803;27;45321;-60
2021/09/04 04:45:48;;;;;;;;;49.50;39.25;;;;;19.71;64.23;100716.03;5097868;27;65622;-59
2021/09/04 04:48:13;;;;;;;;;50.75;39.50;;;;;19.69;64.41;100710.06;5097794;27;65143;-60
2021/09/04 04:50:39;;;;;;;;;52.25;40.50;;;;;19.68;64.58;100713.75;5098736;27;45305;-60
2021/09/04 04:53:05;;;;;;;;;48.25;39.50;;;;;19.68;64.25;100711.09;5097560;27;68343;-60
2021/09/04 04:55:30;;;;;;;;;45.50;37.50;;;;;19.68;64.71;100712.94;5098390;27;46212;-60
2021/09/04 04:57:55;;;;;;;;;49.25;37.50;;;;;19.67;64.59;100719.31;5097415;27;70018;-60
2021/09/04 05:00:21;;;;;;;;;46.50;37.75;;;;;19.68;64.86;100712.94;5097835;27;58432;-59
2021/09/04 05:02:46;;;;;;;;;45.00;37.50;;;;;19.70;65.09;100718.91;5098409;27;45298;-61
2021/09/04 05:05:12;;;;;;;;;48.50;37.50;;;;;19.70;64.83;100716.25;5097526;27;75541;-59
2021/09/04 05:07:37;;;;;;;;;48.25;37.75;;;;;19.70;64.96;100709.06;5097242;27;73208;-60
2021/09/04 05:10:03;;;;;;;;;41.75;34.75;;;;;19.71;65.02;100712.56;5098309;27;45369;-60
2021/09/04 05:12:28;;;;;;;;;48.75;36.75;;;;;19.71;64.85;100713.38;5097039;27;45320;-59
2021/09/04 05:14:54;;;;;;;;;50.25;37.50;;;;;19.71;65.10;100713.38;5097087;27;72026;-60
2021/09/04 05:17:19;;;;;;;;;40.75;34.25;;;;;19.72;64.87;100719.56;5097455;27;63803;-60
2021/09/04 05:19:44;;;;;;;;;47.50;36.50;;;;;19.73;65.12;100721.19;5097558;27;61259;-59
2021/09/04 05:22:10;;;;;;;;;46.25;36.50;;;;;19.75;64.70;100715.66;5097514;27;50437;-60
2021/09/04 05:24:35;;;;;;;;;43.75;36.00;;;;;19.76;64.86;100718.16;5097934;27;46260;-59
2021/09/04 05:27:00;;;;;;;;;50.00;40.25;;;;;19.78;64.60;100721.44;5079023;27;65921;-59
2021/09/04 05:29:26;;;;;;;;;48.00;37.00;;;;;19.78;64.67;100721.44;5097240;27;65745;-60
2021/09/04 05:31:52;;;;;;;;;51.75;40.25;;;;;19.79;64.70;100719.59;5097997;27;45304;-60
2021/09/04 05:34:17;;;;;;;;;43.00;35.00;;;;;19.80;64.61;100723.91;5097640;27;48551;-59
2021/09/04 05:36:43;;;;;;;;;40.75;35.75;;;;;19.83;64.78;100728.84;5097009;27;63474;-59
2021/09/04 05:39:08;;;;;;;;;44.50;35.50;;;;;19.84;64.76;100731.34;5078499;27;66115;-59
2021/09/04 05:41:34;;;;;;;;;45.50;36.00;;;;;19.83;65.03;100724.38;5097160;27;60232;-60
2021/09/04 05:43:59;;;;;;;;;37.75;34.25;;;;;19.81;65.14;100730.88;5096865;27;64370;-59
2021/09/04 05:46:24;;;;;;;;;45.00;36.25;;;;;19.82;64.90;100733.38;5097014;27;60986;-59
2021/09/04 05:48:50;;;;;;;;;40.00;34.75;;;;;19.81;65.05;100729.06;5096968;27;60372;-59
2021/09/04 05:51:15;;;;;;;;;42.75;35.50;;;;;19.80;64.69;100730.09;5096870;27;65194;-60
2021/09/04 05:53:42;;;;;;;;;44.00;32.50;;;;;19.80;64.74;100734.56;5078242;27;73528;-60
2021/09/04 05:56:07;;;;;;;;;36.00;31.50;;;;;19.82;65.28;100740.53;5096634;27;45178;-60
2021/09/04 05:58:33;;;;;;;;;34.50;29.00;;;;;19.80;65.56;100739.91;5096709;27;68445;-61
2021/09/04 06:00:58;;;;;;;;;37.25;32.75;;;;;19.81;65.12;100733.56;5096483;27;67036;-61
2021/09/04 06:03:24;;;;;;;;;36.75;32.75;;;;;19.83;65.04;100736.84;5096356;27;73820;-58
2021/09/04 06:05:49;;;;;;;;;39.75;33.25;;;;;19.85;65.15;100738.34;5096437;27;65771;-60
2021/09/04 06:08:14;;;;;;;;;38.25;32.25;;;;;19.87;65.37;100740.78;5096262;27;69021;-60
2021/09/04 06:10:40;;;;;;;;;38.00;33.25;;;;;19.90;65.23;100742.25;5097450;27;45186;-60
2021/09/04 06:13:05;;;;;;;;;37.50;32.00;;;;;19.92;65.43;100743.75;5096074;27;75028;-60
2021/09/04 06:15:30;;;;;;;;;38.25;32.50;;;;;19.93;65.27;100745.38;5096568;27;62862;-61
2021/09/04 06:17:56;;;;;;;;;37.00;32.25;;;;;19.94;65.28;100749.69;5096453;27;58674;-61
2021/09/04 06:20:21;;;;;;;;;33.25;31.25;;;;;19.96;65.57;100753.00;5096461;27;63507;-61
2021/09/04 06:22:47;;;;;;;;;37.25;31.75;;;;;19.96;65.71;100755.66;5096521;27;55146;-60
2021/09/04 06:25:12;;;;;;;;;37.75;32.75;;;;;19.98;65.64;100752.78;5096189;27;73242;-60
2021/09/04 06:27:38;;;;;;;;;36.00;32.00;;;;;19.98;65.83;100750.97;5096751;27;57040;-60
2021/09/04 06:30:04;;;;;;;;;34.50;31.25;;;;;20.00;65.43;100754.28;5097002;27;45315;-60
2021/09/04 06:32:30;;;;;;;;;34.75;33.00;;;;;20.03;65.39;100750.38;5096843;27;46413;-61
2021/09/04 06:34:55;;;;;;;;;35.50;31.50;;;;;20.06;65.80;100743.84;5096180;27;65189;-61
2021/09/04 06:37:20;;;;;;;;;30.25;27.25;;;;;20.09;65.79;100748.78;5097066;27;45256;-60
2021/09/04 06:39:46;;;;;;;;;35.00;27.25;;;;;20.09;65.52;100738.94;5096990;27;45280;-61
2021/09/04 06:42:11;;;;;;;;;34.00;25.25;;;;;20.15;65.92;100745.31;5096063;27;66178;-60
2021/09/04 06:44:36;;;;;;;;;31.00;26.25;;;;;20.19;65.49;100756.44;5096053;27;65161;-61
2021/09/04 06:47:02;;;;;;;;;26.75;24.50;;;;;20.21;66.03;100757.88;5096600;27;54015;-60
2021/09/04 06:49:27;;;;;;;;;31.75;26.75;;;;;20.22;65.93;100759.53;5096153;27;45350;-60
2021/09/04 06:51:53;;;;;;;;;31.75;26.50;;;;;20.25;66.34;100764.47;5095746;27;69274;-58
2021/09/04 06:54:23;;;;;;;;;27.25;24.00;;;;;20.28;65.92;100764.09;5095754;27;72514;-60
2021/09/04 06:56:49;;;;;;;;;30.00;24.50;;;;;20.31;66.22;100761.03;5096821;27;45394;-60
2021/09/04 06:59:14;;;;;;;;;30.75;24.75;;;;;20.34;65.82;100765.19;5096882;27;45544;-62
2021/09/04 07:01:39;;;;;;;;;26.00;23.50;;;;;20.37;66.18;100761.28;5078164;27;47200;-61
2021/09/04 07:04:05;;;;;;;;;23.50;21.00;;;;;20.40;65.95;100766.22;5094645;27;57092;-63
2021/09/04 07:06:30;;;;;;;;;25.75;23.00;;;;;20.41;66.61;100760.69;5095863;27;65409;-61
2021/09/04 07:08:55;;;;;;;;;22.75;18.25;;;;;20.44;66.57;100767.50;5096198;27;53500;-60
2021/09/04 07:11:21;;;;;;;;;23.00;21.75;;;;;20.45;66.06;100764.63;5095450;27;72639;-61
2021/09/04 07:13:46;;;;;;;;;18.00;17.25;;;;;20.45;66.06;100764.63;5095518;27;68965;-60
2021/09/04 07:16:12;;;;;;;;;18.00;17.00;;;;;20.48;66.19;100763.41;5095619;27;68440;-61
2021/09/04 07:18:37;;;;;;;;;18.50;17.00;;;;;20.51;65.59;100768.34;5096228;27;45560;-59
2021/09/04 07:21:02;;;;;;;;;19.75;17.50;;;;;20.53;65.57;100766.31;5095968;27;48008;-58
2021/09/04 07:23:28;;;;;;;;;18.00;16.25;;;;;20.55;66.10;100768.78;5095598;27;69002;-59
2021/09/04 07:25:53;;;;;;;;;21.25;19.50;;;;;20.56;65.42;100770.44;5096536;27;45616;-57
2021/09/04 07:28:18;;;;;;;;;22.00;20.50;;;;;20.57;65.34;100772.06;5095530;27;68040;-58
2021/09/04 07:30:44;;;;;;;;;20.25;19.25;;;;;20.59;65.55;100770.88;5095758;27;45462;-61
2021/09/04 07:33:09;;;;;;;;;19.25;17.50;;;;;20.61;65.47;100778.66;5095218;27;53646;-58
2021/09/04 07:35:35;;;;;;;;;20.75;17.50;;;;;20.63;65.82;100775.81;5095125;27;45787;-59
2021/09/04 07:38:00;;;;;;;;;19.50;17.50;;;;;20.65;65.44;100779.13;5094472;27;45476;-59
2021/09/04 07:40:25;;;;;;;;;27.75;24.00;;;;;20.67;65.41;100775.22;5095149;27;45823;-59
2021/09/04 07:42:51;;;;;;;;;23.50;19.00;;;;;20.70;66.11;100774.00;5094116;27;66188;-58
2021/09/04 07:45:16;;;;;;;;;25.00;22.25;;;;;20.73;66.00;100771.75;5095424;27;45443;-59
2021/09/04 07:47:42;;;;;;;;;20.50;19.25;;;;;20.79;65.51;100774.69;5095293;27;66005;-60
2021/09/04 07:50:07;;;;;;;;;24.50;19.00;;;;;20.81;65.34;100776.13;5095756;27;45343;-61
2021/09/04 07:52:33;;;;;;;;;22.00;19.00;;;;;20.84;66.00;100769.59;5094261;27;46059;-59
2021/09/04 07:54:58;;;;;;;;;18.50;17.75;;;;;20.86;65.63;100776.38;5086075;27;45573;-59
2021/09/04 07:57:24;;;;;;;;;19.00;17.25;;;;;20.90;66.04;100776.81;5091928;27;60922;-58
2021/09/04 07:59:49;;;;;;;;;19.50;18.50;;;;;20.92;65.29;100771.25;5092719;27;46030;-59
2021/09/04 08:02:14;;;;;;;;;20.25;20.00;;;;;20.93;65.61;100771.03;5090626;27;45417;-60
2021/09/04 08:04:40;;;;;;;;;18.25;18.00;;;;;20.97;65.55;100768.81;5091031;27;65383;-59
2021/09/04 08:07:05;;;;;;;;;22.00;20.00;;;;;20.99;65.42;100764.09;5088764;27;60002;-59
2021/09/04 08:09:31;;;;;;;;;18.50;17.75;;;;;21.01;65.79;100760.19;5066970;27;45976;-60
2021/09/04 08:11:56;;;;;;;;;17.00;15.00;;;;;21.07;66.19;100760.41;5083846;27;45507;-60
2021/09/04 08:14:21;;;;;;;;;18.25;16.25;;;;;21.12;66.16;100758.81;5084951;27;45512;-60
2021/09/04 08:16:47;;;;;;;;;18.00;15.75;;;;;21.19;66.47;100756.97;5083475;27;60169;-60
2021/09/04 08:19:12;;;;;;;;;19.00;16.50;;;;;21.25;65.95;100762.53;5088696;27;67916;-60
2021/09/04 08:21:38;;;;;;;;;18.50;16.00;;;;;21.33;65.84;100765.84;5090864;27;66038;-60
2021/09/04 08:24:03;;;;;;;;;19.50;15.25;;;;;21.45;66.41;100775.97;5090627;27;67068;-60
2021/09/04 08:26:29;;;;;;;;;17.50;14.50;;;;;21.59;66.41;100784.81;5070390;27;45673;-61
2021/09/04 08:28:55;;;;;;;;;17.75;16.00;;;;;21.74;65.90;100782.78;5094115;27;46390;-60
2021/09/04 08:31:20;;;;;;;;;13.75;11.75;;;;;21.90;65.12;100788.78;5075216;27;45450;-59
2021/09/04 08:33:46;;;;;;;;;15.50;15.50;;;;;22.04;64.21;100785.09;5090604;27;45451;-59
2021/09/04 08:36:11;;;;;;;;;13.50;13.00;;;;;22.18;63.61;100790.44;5088168;27;47345;-60
2021/09/04 08:38:37;;;;;;;;;14.75;14.00;;;;;22.30;63.95;100794.09;5090571;27;46399;-61
2021/09/04 08:41:05;;;;;;;;;15.00;12.00;;;;;22.41;63.55;100797.19;5085786;27;45522;-60
2021/09/04 08:43:30;;;;;;;;;18.25;14.50;;;;;22.54;63.12;100791.84;5065508;27;45488;-60
2021/09/04 08:45:59;;;;;;;;;16.75;15.75;;;;;22.65;62.28;100795.72;5087323;27;65695;-60
2021/09/04 08:48:25;;;;;;;;;18.00;15.00;;;;;22.73;62.55;100800.84;5091830;27;46351;-60
2021/09/04 08:50:51;;;;;;;;;18.75;15.25;;;;;22.83;62.37;100798.56;5091450;27;45480;-60
2021/09/04 08:53:18;;;;;;;;;15.75;13.75;;;;;22.93;62.15;100806.13;5092513;27;45435;-60
2021/09/04 08:55:43;;;;;;;;;16.00;15.25;;;;;23.03;61.89;100803.03;5092500;27;45580;-59
2021/09/04 08:58:09;;;;;;;;;21.00;15.25;;;;;23.13;61.14;100807.94;5091378;27;46128;-60
2021/09/04 09:00:36;;;;;;;;;18.25;17.00;;;;;23.24;61.31;100809.13;5072814;27;45524;-60
2021/09/04 09:03:02;;;;;;;;;13.25;13.25;;;;;23.32;60.44;100811.56;5085620;27;45436;-60
2021/09/04 09:05:41;;;;;;;;;15.50;13.00;;;;;23.42;60.39;100819.16;5087138;27;45549;-60
2021/09/04 09:08:07;;;;;;;;;15.50;15.00;;;;;23.51;60.25;100815.19;5068109;27;47454;-60
2021/09/04 09:10:37;;;;;;;;;17.50;14.00;;;;;23.59;60.39;100822.13;5072678;27;45628;-60
2021/09/04 09:13:04;;;;;;;;;18.25;14.50;;;;;23.68;59.64;100812.78;5064168;27;45388;-62
2021/09/04 09:15:31;;;;;;;;;11.50;11.25;;;;;23.77;59.36;100818.75;5066659;27;45371;-61
2021/09/04 09:18:01;;;;;;;;;13.00;12.75;;;;;23.86;59.31;100825.47;5081915;27;45931;-59
2021/09/04 09:20:30;;;;;;;;;10.25;10.00;;;;;23.94;59.11;100826.22;5062806;27;46052;-60
2021/09/04 09:23:03;;;;;;;;;14.75;12.75;;;;;24.03;58.26;100821.47;5061288;27;45458;-59
2021/09/04 09:25:28;;;;;;;;;11.25;11.00;;;;;24.10;58.02;100822.25;5063985;27;45493;-60
2021/09/04 09:28:10;;;;;;;;;13.25;13.25;;;;;24.16;57.57;100818.66;5063185;27;72295;-60
2021/09/04 09:30:42;;;;;;;;;16.00;15.00;;;;;24.20;57.42;100827.91;5079203;27;45979;-60
2021/09/04 09:33:08;;;;;;;;;14.75;13.00;;;;;24.25;57.14;100825.41;5081204;27;45444;-60
2021/09/04 09:35:35;;;;;;;;;15.00;13.00;;;;;24.31;57.28;100821.03;5063981;27;45598;-60
2021/09/04 09:38:02;;;;;;;;;14.50;12.25;;;;;24.33;56.47;100824.31;5064480;27;46071;-60
2021/09/04 09:40:29;;;;;;;;;13.75;13.50;;;;;24.35;56.83;100822.22;5083334;27;45271;-60
2021/09/04 09:42:54;;;;;;;;;16.00;12.50;;;;;24.36;56.92;100823.88;5078407;27;45524;-60
2021/09/04 09:45:20;;;;;;;;;16.50;12.50;;;;;24.38;56.48;100821.75;5059055;27;45760;-60
2021/09/04 09:47:51;;;;;;;;;15.50;13.75;;;;;24.42;56.95;100825.66;5086264;27;45482;-61
2021/09/04 09:50:17;;;;;;;;;16.00;14.00;;;;;24.47;56.65;100819.63;5086697;27;49704;-60
2021/09/04 09:52:43;;;;;;;;;13.75;12.00;;;;;24.51;56.25;100815.44;5088148;27;46484;-60
2021/09/04 09:55:09;;;;;;;;;13.50;11.75;;;;;24.58;56.05;100816.22;5076207;27;45539;-59
2021/09/04 09:57:34;;;;;;;;;13.25;13.25;;;;;24.65;55.95;100816.13;5090030;27;46424;-61
2021/09/04 10:00:00;;;;;;;;;11.00;11.00;;;;;24.70;55.62;100813.59;5073426;27;73254;-60
2021/09/04 10:02:25;;;;;;;;;12.25;11.00;;;;;24.78;55.80;100814.38;5070111;27;67787;-61
2021/09/04 10:04:50;;;;;;;;;13.50;12.00;;;;;24.84;55.79;100814.28;5087873;27;63744;-60
2021/09/04 10:07:16;;;;;;;;;11.25;11.00;;;;;24.88;55.04;100812.00;5088520;27;67406;-60
2021/09/04 10:09:41;;;;;;;;;13.25;12.25;;;;;24.92;54.71;100804.28;5088756;27;68309;-60
2021/09/04 10:12:07;;;;;;;;;9.25;9.25;;;;;24.96;54.22;100811.66;5086570;27;45438;-60
2021/09/04 10:14:33;;;;;;;;;16.50;13.00;;;;;24.99;53.94;100808.53;5089677;27;45346;-60
2021/09/04 10:17:01;;;;;;;;;14.75;13.25;;;;;25.05;53.89;100806.81;5087489;27;46334;-60
2021/09/04 10:19:30;;;;;;;;;10.00;9.25;;;;;25.15;53.55;100809.78;5070132;27;45996;-61
2021/09/04 10:22:06;;;;;;;;;9.75;8.25;;;;;25.25;52.97;100811.09;5087997;27;45971;-61
2021/09/04 10:24:46;;;;;;;;;8.00;8.00;;;;;25.36;52.81;100804.13;5084424;27;45388;-60
2021/09/04 10:27:12;;;;;;;;;11.00;9.75;;;;;25.48;52.71;100813.06;5085964;27;46213;-60
2021/09/04 10:29:45;;;;;;;;;9.50;9.00;;;;;25.60;52.29;100815.81;5091369;27;45924;-60
2021/09/04 10:32:16;;;;;;;;;10.75;9.75;;;;;25.72;52.05;100813.16;5093139;27;45461;-59
2021/09/04 10:34:44;;;;;;;;;9.00;9.00;;;;;25.83;51.78;100809.69;5093387;27;45200;-60
2021/09/04 10:37:12;;;;;;;;;11.75;8.75;;;;;25.93;51.66;100818.00;5086812;27;46197;-60
2021/09/04 10:39:55;;;;;;;;;10.75;9.00;;;;;26.04;51.55;100813.69;5079624;27;45938;-60
2021/09/04 10:42:32;;;;;;;;;9.50;9.00;;;;;26.16;51.82;100813.72;5077768;27;45493;-59
2021/09/04 10:45:03;;;;;;;;;13.00;11.75;;;;;26.22;51.35;100815.47;5078974;27;45462;-59
2021/09/04 10:47:29;;;;;;;;;8.00;7.75;;;;;26.27;51.17;100812.06;5081448;27;45525;-59
2021/09/04 10:49:58;;;;;;;;;10.25;10.00;;;;;26.33;51.71;100808.44;5078139;27;46195;-59
2021/09/04 10:52:45;;;;;;;;;11.00;11.00;;;;;26.45;51.11;100810.31;5051897;27;45427;-60
2021/09/04 10:55:27;;;;;;;;;11.50;11.25;;;;;26.51;50.57;100804.78;5077324;27;45485;-61
2021/09/04 10:57:54;;;;;;;;;11.25;11.00;;;;;26.58;50.46;100806.53;5075333;27;50042;-60
2021/09/04 11:00:21;;;;;;;;;11.50;9.00;;;;;26.62;50.30;100802.31;5076230;27;45513;-61
2021/09/04 11:02:51;;;;;;;;;12.75;11.25;;;;;26.67;50.51;100799.72;5081936;27;45551;-61
2021/09/04 11:05:27;;;;;;;;;12.00;12.00;;;;;26.77;50.72;100804.50;5074478;27;45426;-60